Time;durP1;ratioP1;P1;durP2;ratioP2;P2;SDS_P1;SDS_P2;PMS_P1;PMS_P2;Temp;Humidity;BMP_temperature;BMP_pressure;BME280_temperature;BME280_humidity;BME280_pressure;Samples;Min_cycle;Max_cycle;Signal;HPM_P1;HPM_P2
2022/10/04 00:00:29;;;;;;;14.73;13.10;;;;;;;-141.48;100.00;69781.59;5207381;28;20052;-68
2022/10/04 00:03:07;;;;;;;13.02;11.73;;;;;;;-141.48;100.00;69781.59;5207533;28;20017;-68
2022/10/04 00:05:40;;;;;;;13.48;12.43;;;;;;;-141.48;100.00;69781.59;5206962;28;20025;-68
2022/10/04 00:08:39;;;;;;;17.83;12.75;;;;;;;-141.48;100.00;69781.59;5206272;28;20026;-67
2022/10/04 00:11:36;;;;;;;14.52;13.07;;;;;;;-141.48;100.00;69781.59;5208612;28;20130;-67
2022/10/04 00:14:21;;;;;;;12.15;11.23;;;;;;;-141.48;100.00;69781.59;5207296;28;20025;-67
2022/10/04 00:16:53;;;;;;;16.10;14.90;;;;;;;-141.48;100.00;69781.59;5207311;28;20048;-70
2022/10/04 00:19:41;;;;;;;15.70;14.32;;;;;;;-141.48;100.00;69781.59;5206420;28;20033;-71
2022/10/04 00:22:16;;;;;;;14.85;13.57;;;;;;;-141.48;100.00;69781.59;5207053;28;20052;-67
2022/10/04 00:25:12;;;;;;;15.23;13.85;;;;;;;-141.48;100.00;69781.59;5205487;28;20095;-68
2022/10/04 00:28:20;;;;;;;17.67;13.25;;;;;;;-141.48;100.00;69781.59;5207015;28;20544;-67
2022/10/04 00:31:21;;;;;;;12.10;10.93;;;;;;;-141.48;100.00;69781.59;5206525;28;20041;-67
2022/10/04 00:33:59;;;;;;;15.00;13.52;;;;;;;-141.48;100.00;69781.59;5205094;28;20036;-68
2022/10/04 00:36:36;;;;;;;13.70;12.80;;;;;;;-141.48;100.00;69781.59;5206736;28;20424;-68
2022/10/04 00:39:07;;;;;;;16.10;14.48;;;;;;;-141.48;100.00;69781.59;5206550;28;20033;-68
2022/10/04 00:41:37;;;;;;;13.40;12.32;;;;;;;-141.48;100.00;69781.59;5206352;28;20390;-68
2022/10/04 00:44:14;;;;;;;14.50;13.10;;;;;;;-141.48;100.00;69781.59;5207807;28;20087;-67
2022/10/04 00:46:47;;;;;;;15.85;14.75;;;;;;;-141.48;100.00;69781.59;5206578;28;20021;-67
2022/10/04 00:49:22;;;;;;;15.55;14.52;;;;;;;-141.48;100.00;69781.59;5206326;28;20028;-68
2022/10/04 00:52:01;;;;;;;13.88;12.73;;;;;;;-141.48;100.00;69781.59;5207797;28;20021;-67
2022/10/04 00:54:46;;;;;;;15.35;14.25;;;;;;;-141.48;100.00;69781.59;5206147;28;20021;-68
2022/10/04 00:57:22;;;;;;;16.30;14.90;;;;;;;-141.48;100.00;69781.59;5206423;28;20029;-69
2022/10/04 00:59:57;;;;;;;15.45;14.27;;;;;;;-141.48;100.00;69781.59;5206224;28;20432;-68
2022/10/04 01:02:37;;;;;;;18.02;14.88;;;;;;;-141.48;100.00;69781.59;5206003;28;20036;-67
2022/10/04 01:05:27;;;;;;;14.88;13.45;;;;;;;-141.48;100.00;69781.59;5206274;28;20028;-67
2022/10/04 01:08:08;;;;;;;18.70;16.23;;;;;;;-141.48;100.00;69781.59;5205757;28;20036;-67
2022/10/04 01:10:38;;;;;;;16.42;15.07;;;;;;;-141.48;100.00;69781.59;5206042;28;20507;-67
2022/10/04 01:13:12;;;;;;;18.67;16.67;;;;;;;-141.48;100.00;69781.59;5207399;28;20037;-69
2022/10/04 01:16:01;;;;;;;14.85;13.68;;;;;;;-141.48;100.00;69781.59;5205978;28;20108;-67
2022/10/04 01:18:34;;;;;;;15.35;13.70;;;;;;;-141.48;100.00;69781.59;5205038;28;20036;-67
2022/10/04 01:21:20;;;;;;;16.40;14.80;;;;;;;-141.48;100.00;69781.59;5207349;28;20119;-68
2022/10/04 01:23:57;;;;;;;16.65;15.20;;;;;;;-141.48;100.00;69781.59;5205565;28;20039;-67
2022/10/04 01:26:28;;;;;;;16.77;15.60;;;;;;;-141.48;100.00;69781.59;5206771;28;20091;-67
2022/10/04 01:29:07;;;;;;;16.58;15.02;;;;;;;-141.48;100.00;69781.59;5205531;28;20119;-66
2022/10/04 01:31:58;;;;;;;15.20;14.10;;;;;;;-141.48;100.00;69781.59;5205855;28;20032;-69
2022/10/04 01:34:29;;;;;;;18.67;17.27;;;;;;;-141.48;100.00;69781.59;5205502;28;20566;-67
2022/10/04 01:37:00;;;;;;;17.33;16.02;;;;;;;-141.48;100.00;69781.59;5206796;28;20029;-68
2022/10/04 01:39:30;;;;;;;20.13;17.10;;;;;;;-141.48;100.00;69781.59;5205332;28;20026;-67
2022/10/04 01:42:08;;;;;;;18.83;16.23;;;;;;;-141.48;100.00;69781.59;5204989;28;20445;-67
2022/10/04 01:44:54;;;;;;;18.02;16.75;;;;;;;-141.48;100.00;69781.59;5204983;28;20099;-67
2022/10/04 01:47:54;;;;;;;16.58;15.02;;;;;;;-141.48;100.00;69781.59;5205282;28;20036;-70
2022/10/04 01:50:33;;;;;;;17.38;15.85;;;;;;;-141.48;100.00;69781.59;5205320;28;20027;-67
2022/10/04 01:53:24;;;;;;;15.60;13.95;;;;;;;-141.48;100.00;69781.59;5205346;28;20386;-68
2022/10/04 01:56:05;;;;;;;22.48;18.88;;;;;;;-141.48;100.00;69781.59;5205208;28;20025;-67
2022/10/04 01:58:44;;;;;;;18.80;17.20;;;;;;;-141.48;100.00;69781.59;5205156;28;20049;-67
2022/10/04 02:01:26;;;;;;;13.93;12.80;;;;;;;-141.48;100.00;69781.59;5206683;28;20075;-70
2022/10/04 02:04:05;;;;;;;17.80;16.45;;;;;;;-141.48;100.00;69781.59;5204961;28;20021;-67
2022/10/04 02:06:39;;;;;;;15.50;14.10;;;;;;;-141.48;100.00;69781.59;5205533;28;20062;-66
2022/10/04 02:09:16;;;;;;;19.27;16.63;;;;;;;-141.48;100.00;69781.59;5206365;28;20190;-66
2022/10/04 02:11:51;;;;;;;15.07;14.02;;;;;;;-141.48;100.00;69781.59;5204944;28;20095;-66
2022/10/04 02:14:26;;;;;;;17.73;16.52;;;;;;;-141.48;100.00;69781.59;5204809;28;20028;-68
2022/10/04 02:17:00;;;;;;;20.73;16.35;;;;;;;-141.48;100.00;69781.59;5203895;28;20033;-67
2022/10/04 02:19:36;;;;;;;18.98;14.68;;;;;;;-141.48;100.00;69781.59;5204962;28;20539;-69
2022/10/04 02:22:10;;;;;;;16.23;15.05;;;;;;;-141.48;100.00;69781.59;5205060;28;20028;-66
2022/10/04 02:24:46;;;;;;;17.00;15.65;;;;;;;-141.48;100.00;69781.59;5205882;28;20392;-67
2022/10/04 02:27:17;;;;;;;15.52;14.27;;;;;;;-141.48;100.00;69781.59;5204633;28;20040;-67
2022/10/04 02:29:47;;;;;;;14.32;12.95;;;;;;;-141.48;100.00;69781.59;5205026;28;20025;-67
2022/10/04 02:35:07;;;;;;;17.70;16.25;;;;;;;-141.48;100.00;69781.59;5210142;28;20029;-70
2022/10/04 02:37:38;;;;;;;16.60;15.35;;;;;;;-141.48;100.00;69781.59;5208915;28;20556;-68
2022/10/04 02:40:17;;;;;;;16.83;15.68;;;;;;;-141.48;100.00;69781.59;5208608;28;20480;-67
2022/10/04 02:43:02;;;;;;;17.90;16.38;;;;;;;-141.48;100.00;69781.59;5208861;28;20029;-66
2022/10/04 02:45:39;;;;;;;15.90;14.70;;;;;;;-141.48;100.00;69781.59;5208776;28;20014;-67
2022/10/04 02:48:21;;;;;;;16.63;15.05;;;;;;;-141.48;100.00;69781.59;5208891;28;20063;-67
2022/10/04 02:50:54;;;;;;;18.80;15.40;;;;;;;-141.48;100.00;69781.59;5208584;28;20029;-67
2022/10/04 02:53:57;;;;;;;16.95;15.50;;;;;;;-141.48;100.00;69781.59;5208672;28;20500;-68
2022/10/04 02:56:28;;;;;;;18.40;16.90;;;;;;;-141.48;100.00;69781.59;5178315;28;20033;-70
2022/10/04 02:59:02;;;;;;;17.10;15.43;;;;;;;-141.48;100.00;69781.59;5209703;28;20096;-68
2022/10/04 03:01:56;;;;;;;18.50;16.63;;;;;;;-141.48;100.00;69781.59;5209294;28;20397;-69
2022/10/04 03:04:31;;;;;;;18.45;15.63;;;;;;;-141.48;100.00;69781.59;5208708;28;20036;-67
2022/10/04 03:07:05;;;;;;;16.55;14.90;;;;;;;-141.48;100.00;69781.59;5208736;28;20027;-67
2022/10/04 03:09:38;;;;;;;17.20;15.73;;;;;;;-141.48;100.00;69781.59;5208317;28;20547;-67
2022/10/04 03:12:11;;;;;;;18.27;16.85;;;;;;;-141.48;100.00;69781.59;5208782;28;20029;-67
2022/10/04 03:14:43;;;;;;;18.67;16.90;;;;;;;-141.48;100.00;69781.59;5208142;28;20032;-67
2022/10/04 03:17:15;;;;;;;18.30;14.60;;;;;;;-141.48;100.00;69781.59;5208203;28;20401;-68
2022/10/04 03:19:49;;;;;;;19.08;16.83;;;;;;;-141.48;100.00;69781.59;5207930;28;20029;-69
2022/10/04 03:22:22;;;;;;;17.33;15.90;;;;;;;-141.48;100.00;69781.59;5208165;28;20515;-68
2022/10/04 03:24:54;;;;;;;17.02;15.65;;;;;;;-141.48;100.00;69781.59;5207779;28;20021;-67
2022/10/04 03:27:30;;;;;;;17.10;15.68;;;;;;;-141.48;100.00;69781.59;5207395;28;20072;-66
2022/10/04 03:30:01;;;;;;;20.73;16.65;;;;;;;-141.48;100.00;69781.59;5209261;28;20044;-68
2022/10/04 03:32:32;;;;;;;15.88;14.57;;;;;;;-141.48;100.00;69781.59;5208142;28;20025;-67
2022/10/04 03:35:06;;;;;;;16.92;15.40;;;;;;;-141.48;100.00;69781.59;5206836;28;20488;-68
2022/10/04 03:37:37;;;;;;;17.67;16.05;;;;;;;-141.48;100.00;69781.59;5207667;28;20034;-69
2022/10/04 03:40:08;;;;;;;16.02;13.77;;;;;;;-141.48;100.00;69781.59;5209142;28;20036;-67
2022/10/04 03:42:39;;;;;;;18.98;16.85;;;;;;;-141.48;100.00;69781.59;5206802;28;20615;-69
2022/10/04 03:45:17;;;;;;;17.15;15.55;;;;;;;-141.48;100.00;69781.59;5207281;28;20047;-67
2022/10/04 03:47:52;;;;;;;15.82;14.63;;;;;;;-141.48;100.00;69781.59;5208174;28;20485;-68
2022/10/04 03:50:28;;;;;;;16.02;14.90;;;;;;;-141.48;100.00;69781.59;5207356;28;20037;-67
2022/10/04 03:53:17;;;;;;;19.42;17.60;;;;;;;-141.48;100.00;69781.59;5207427;28;20025;-67
2022/10/04 03:55:48;;;;;;;17.95;16.58;;;;;;;-141.48;100.00;69781.59;5207231;28;20017;-68
2022/10/04 03:58:28;;;;;;;21.15;15.82;;;;;;;-141.48;100.00;69781.59;5207102;28;20048;-66
2022/10/04 04:00:59;;;;;;;18.25;16.70;;;;;;;-141.48;100.00;69781.59;5207272;28;20037;-67
2022/10/04 04:03:36;;;;;;;17.00;15.57;;;;;;;-141.48;100.00;69781.59;5207224;28;20029;-67
2022/10/04 04:06:15;;;;;;;17.98;16.45;;;;;;;-141.48;100.00;69781.59;5207410;28;20024;-67
2022/10/04 04:08:51;;;;;;;15.70;14.38;;;;;;;-141.48;100.00;69781.59;5207089;28;20028;-67
2022/10/04 04:11:25;;;;;;;20.30;17.13;;;;;;;-141.48;100.00;69781.59;5207379;28;20024;-67
2022/10/04 04:14:05;;;;;;;15.55;14.48;;;;;;;-141.48;100.00;69781.59;5206968;28;20033;-66
2022/10/04 04:16:37;;;;;;;15.95;14.60;;;;;;;-141.48;100.00;69781.59;5207344;28;20075;-68
2022/10/04 04:19:15;;;;;;;19.48;15.35;;;;;;;-141.48;100.00;69781.59;5207097;28;20036;-68
2022/10/04 04:21:46;;;;;;;19.58;17.15;;;;;;;-141.48;100.00;69781.59;5207700;28;20028;-67
2022/10/04 04:24:27;;;;;;;17.08;13.93;;;;;;;-141.48;100.00;69781.59;5207232;28;20138;-69
2022/10/04 04:27:04;;;;;;;15.52;14.13;;;;;;;-141.48;100.00;69781.59;5206718;28;20029;-68
2022/10/04 04:29:47;;;;;;;18.55;14.15;;;;;;;-141.48;100.00;69781.59;5207234;28;20029;-67
2022/10/04 04:32:24;;;;;;;18.00;16.08;;;;;;;-141.48;100.00;69781.59;5206558;28;20124;-67
2022/10/04 04:35:07;;;;;;;15.90;14.38;;;;;;;-141.48;100.00;69781.59;5206696;28;20061;-68
2022/10/04 04:37:39;;;;;;;15.63;14.38;;;;;;;-141.48;100.00;69781.59;5207187;28;20044;-67
2022/10/04 04:40:20;;;;;;;15.45;14.15;;;;;;;-141.48;100.00;69781.59;5206544;28;20044;-67
2022/10/04 04:42:51;;;;;;;15.95;14.35;;;;;;;-141.48;100.00;69781.59;5206617;28;20452;-69
2022/10/04 04:45:24;;;;;;;16.50;15.25;;;;;;;-141.48;100.00;69781.59;5194234;28;20079;-67
2022/10/04 04:47:56;;;;;;;17.33;15.75;;;;;;;-141.48;100.00;69781.59;5185625;28;20077;-67
2022/10/04 04:50:38;;;;;;;16.33;14.70;;;;;;;-141.48;100.00;69781.59;5186010;28;20029;-67
2022/10/04 04:53:21;;;;;;;16.15;14.43;;;;;;;-141.48;100.00;69781.59;5185136;28;20129;-68
2022/10/04 04:55:56;;;;;;;19.98;15.93;;;;;;;-141.48;100.00;69781.59;5185010;28;20026;-67
2022/10/04 04:58:34;;;;;;;17.27;15.88;;;;;;;-141.48;100.00;69781.59;5186806;28;20022;-69
2022/10/04 05:01:15;;;;;;;16.20;14.63;;;;;;;-141.48;100.00;69781.59;5205605;28;20043;-69
2022/10/04 05:04:02;;;;;;;16.00;14.60;;;;;;;-141.48;100.00;69781.59;5205246;28;20029;-68
2022/10/04 05:06:34;;;;;;;23.65;15.73;;;;;;;-141.48;100.00;69781.59;5190030;28;20097;-67
2022/10/04 05:09:20;;;;;;;23.58;14.95;;;;;;;-141.48;100.00;69781.59;5166778;28;20486;-67
2022/10/04 05:11:53;;;;;;;14.77;13.40;;;;;;;-141.48;100.00;69781.59;5181190;28;20029;-68
2022/10/04 05:14:24;;;;;;;15.85;14.52;;;;;;;-141.48;100.00;69781.59;5192093;28;20029;-68
2022/10/04 05:16:54;;;;;;;13.35;12.25;;;;;;;-141.48;100.00;69781.59;5195326;28;20025;-67
2022/10/04 05:19:30;;;;;;;18.60;14.35;;;;;;;-141.48;100.00;69781.59;5185122;28;20029;-67
2022/10/04 05:22:08;;;;;;;14.85;12.90;;;;;;;-141.48;100.00;69781.59;5185371;28;20030;-68
2022/10/04 05:24:52;;;;;;;13.73;12.38;;;;;;;-141.48;100.00;69781.59;5184762;28;20022;-70
2022/10/04 05:27:25;;;;;;;14.77;13.57;;;;;;;-141.48;100.00;69781.59;5185167;28;20068;-69
2022/10/04 05:30:28;;;;;;;14.30;13.02;;;;;;;-141.48;100.00;69781.59;5184944;28;20022;-68
2022/10/04 05:33:12;;;;;;;14.30;13.07;;;;;;;-141.48;100.00;69781.59;5181259;28;20064;-72
2022/10/04 05:36:18;;;;;;;16.42;13.85;;;;;;;-141.48;100.00;69781.59;5184644;28;20117;-70
2022/10/04 05:39:08;;;;;;;13.80;12.68;;;;;;;-141.48;100.00;69781.59;5185030;28;20038;-69
2022/10/04 05:42:01;;;;;;;15.98;13.18;;;;;;;-141.48;100.00;69781.59;5184489;28;20033;-67
2022/10/04 05:44:43;;;;;;;16.05;14.43;;;;;;;-141.48;100.00;69781.59;5184382;28;20482;-68
2022/10/04 05:47:15;;;;;;;18.23;16.95;;;;;;;-141.48;100.00;69781.59;5183095;28;20029;-69
2022/10/04 05:49:46;;;;;;;15.07;13.90;;;;;;;-141.48;100.00;69781.59;5184090;28;20400;-68
2022/10/04 05:52:32;;;;;;;15.20;13.73;;;;;;;-141.48;100.00;69781.59;5185621;28;20021;-67
2022/10/04 05:55:15;;;;;;;11.88;10.85;;;;;;;-141.48;100.00;69781.59;5182692;28;20018;-67
2022/10/04 05:58:03;;;;;;;12.40;11.30;;;;;;;-141.48;100.00;69781.59;5184198;28;20517;-67
2022/10/04 06:00:51;;;;;;;13.95;12.85;;;;;;;-141.48;100.00;69781.59;5185166;28;20482;-67
2022/10/04 06:03:25;;;;;;;12.50;11.50;;;;;;;-141.48;100.00;69781.59;5186021;28;20415;-69
2022/10/04 06:06:04;;;;;;;16.90;14.80;;;;;;;-141.48;100.00;69781.59;5186002;28;20029;-67
2022/10/04 06:09:02;;;;;;;12.82;11.73;;;;;;;-141.48;100.00;69781.59;5184698;28;20026;-67
2022/10/04 06:11:42;;;;;;;12.57;11.68;;;;;;;-141.48;100.00;69781.59;5184350;28;20042;-67
2022/10/04 06:14:45;;;;;;;14.52;13.13;;;;;;;-141.48;100.00;69781.59;5184158;28;20033;-67
2022/10/04 06:17:47;;;;;;;15.48;14.00;;;;;;;-141.48;100.00;69781.59;5184582;28;20029;-67
2022/10/04 06:20:33;;;;;;;15.20;12.88;;;;;;;-141.48;100.00;69781.59;5163839;28;20056;-67
2022/10/04 06:23:13;;;;;;;10.88;10.18;;;;;;;-141.48;100.00;69781.59;5184641;28;20041;-65
2022/10/04 06:25:59;;;;;;;13.85;12.73;;;;;;;-141.48;100.00;69781.59;5184412;28;20490;-65
2022/10/04 06:28:32;;;;;;;16.02;14.43;;;;;;;-141.48;100.00;69781.59;5214174;22;20061;-67
2022/10/04 06:31:29;;;;;;;13.73;12.48;;;;;;;-141.48;100.00;69781.59;5180205;28;20030;-67
2022/10/04 06:34:18;;;;;;;14.35;13.20;;;;;;;-141.48;100.00;69781.59;5178310;28;20500;-67
2022/10/04 06:37:08;;;;;;;15.50;14.20;;;;;;;-141.48;100.00;69781.59;5182066;28;20060;-68
2022/10/04 06:39:48;;;;;;;;;;;;;;;-141.48;100.00;69781.59;5180621;28;20489;-67
2022/10/04 06:42:34;;;;;;;;;;;;;;;-141.48;100.00;69781.59;5180814;28;20297;-67
2022/10/04 06:45:16;;;;;;;16.08;14.52;;;;;;;-141.48;100.00;69781.59;5180478;28;20525;-67
2022/10/04 06:47:53;;;;;;;14.50;13.27;;;;;;;-141.48;100.00;69781.59;5181492;28;20454;-67
2022/10/04 06:50:29;;;;;;;16.60;15.13;;;;;;;-141.48;100.00;69781.59;5180458;28;20050;-67
2022/10/04 06:53:31;;;;;;;15.32;14.27;;;;;;;-141.48;100.00;69781.59;5180543;28;20030;-67
2022/10/04 06:56:24;;;;;;;17.90;16.05;;;;;;;-141.48;100.00;69781.59;5158300;28;20077;-67
2022/10/04 06:59:23;;;;;;;15.50;14.13;;;;;;;-141.48;100.00;69781.59;5180609;28;20469;-67
2022/10/04 07:01:57;;;;;;;14.48;10.70;;;;;;;-141.48;100.00;69781.59;5166086;28;20044;-68
2022/10/04 07:04:52;;;;;;;16.30;14.43;;;;;;;-141.48;100.00;69781.59;5180199;28;20038;-67
2022/10/04 07:07:37;;;;;;;12.30;11.27;;;;;;;-141.48;100.00;69781.59;5180219;28;20036;-67
2022/10/04 07:10:07;;;;;;;14.95;13.85;;;;;;;-141.48;100.00;69781.59;5180199;28;20034;-67
2022/10/04 07:12:42;;;;;;;14.70;13.13;;;;;;;-141.48;100.00;69781.59;5179784;28;20096;-68
2022/10/04 07:15:25;;;;;;;15.07;13.63;;;;;;;-141.48;100.00;69781.59;5179532;28;20435;-66
2022/10/04 07:18:02;;;;;;;15.40;13.85;;;;;;;-141.48;100.00;69781.59;5183576;28;20029;-67
2022/10/04 07:20:35;;;;;;;13.10;11.85;;;;;;;-141.48;100.00;69781.59;5183527;28;20026;-68
2022/10/04 07:23:14;;;;;;;14.85;13.73;;;;;;;-141.48;100.00;69781.59;5183637;28;20100;-68
2022/10/04 07:25:57;;;;;;;11.53;10.63;;;;;;;-141.48;100.00;69781.59;5184063;28;20134;-65
2022/10/04 07:31:29;;;;;;;16.13;14.18;;;;;;;-141.48;100.00;69781.59;5185272;28;20125;-67
2022/10/04 07:34:14;;;;;;;14.75;12.10;;;;;;;-141.48;100.00;69781.59;5184331;28;20041;-63
2022/10/04 07:36:53;;;;;;;15.30;13.95;;;;;;;-141.48;100.00;69781.59;5184079;28;20088;-66
2022/10/04 07:40:03;;;;;;;15.73;13.05;;;;;;;-141.48;100.00;69781.59;5187833;28;20165;-66
2022/10/04 07:43:09;;;;;;;14.23;13.00;;;;;;;-141.48;100.00;69781.59;5185495;28;20301;-67
2022/10/04 07:45:41;;;;;;;12.65;11.57;;;;;;;-141.48;100.00;69781.59;5171008;28;20486;-68
2022/10/04 07:48:21;;;;;;;12.73;11.80;;;;;;;-141.48;100.00;69781.59;5183024;28;20048;-67
2022/10/04 07:51:00;;;;;;;17.15;12.77;;;;;;;-141.48;100.00;69781.59;5183545;28;20168;-68
2022/10/04 07:54:15;;;;;;;15.10;12.75;;;;;;;-141.48;100.00;69781.59;5183543;28;20167;-68
2022/10/04 07:57:00;;;;;;;65.53;22.90;;;;;;;-141.48;100.00;69781.59;5178113;28;20042;-68
2022/10/04 07:59:44;;;;;;;16.40;13.05;;;;;;;-141.48;100.00;69781.59;5183436;28;20386;-67
2022/10/04 08:02:34;;;;;;;11.90;10.88;;;;;;;-141.48;100.00;69781.59;5183566;28;20072;-67
2022/10/04 08:05:20;;;;;;;;;;;;;;;-141.48;100.00;69781.59;5183550;28;20087;-69
2022/10/04 08:08:03;;;;;;;12.43;11.15;;;;;;;-141.48;100.00;69781.59;5183328;28;19913;-70
2022/10/04 08:10:43;;;;;;;12.13;10.93;;;;;;;-141.48;100.00;69781.59;5183181;28;20385;-71
2022/10/04 08:13:35;;;;;;;12.07;9.88;;;;;;;-141.48;100.00;69781.59;5183222;28;20029;-70
2022/10/04 08:16:35;;;;;;;11.60;10.60;;;;;;;-141.48;100.00;69781.59;5182825;28;20026;-69
2022/10/04 08:19:36;;;;;;;11.10;10.05;;;;;;;-141.48;100.00;69781.59;5147398;28;20054;-70
2022/10/04 08:22:28;;;;;;;12.40;11.20;;;;;;;-141.48;100.00;69781.59;5162530;28;20061;-69
2022/10/04 08:25:13;;;;;;;12.88;10.65;;;;;;;-141.48;100.00;69781.59;5161726;28;20529;-70
2022/10/04 08:31:05;;;;;;;15.32;11.13;;;;;;;-141.48;100.00;69781.59;5163956;28;20057;-70
2022/10/04 08:33:38;;;;;;;16.75;10.05;;;;;;;-141.48;100.00;69781.59;5161894;28;20050;-70
2022/10/04 08:36:41;;;;;;;9.45;8.73;;;;;;;-141.48;100.00;69781.59;5161913;28;20139;-70
2022/10/04 08:39:34;;;;;;;12.68;8.13;;;;;;;-141.48;100.00;69781.59;5138125;28;20126;-70
2022/10/04 08:42:40;;;;;;;9.27;8.50;;;;;;;-141.48;100.00;69781.59;5161648;28;20026;-69
2022/10/04 08:45:51;;;;;;;10.90;10.13;;;;;;;-141.48;100.00;69781.59;5161461;28;20096;-70
2022/10/04 08:48:45;;;;;;;11.93;9.88;;;;;;;-141.48;100.00;69781.59;5161559;28;20102;-70
2022/10/04 08:51:37;;;;;;;11.10;9.77;;;;;;;-141.48;100.00;69781.59;5162080;28;20063;-70
2022/10/04 08:54:34;;;;;;;9.23;8.05;;;;;;;-141.48;100.00;69781.59;5162089;28;20023;-70
2022/10/04 08:57:14;;;;;;;10.98;9.80;;;;;;;-141.48;100.00;69781.59;5161604;28;20037;-70
2022/10/04 08:59:56;;;;;;;;;;;;;;;-141.48;100.00;69781.59;5162007;28;20513;-70
2022/10/04 09:02:53;;;;;;;10.43;9.40;;;;;;;-141.48;100.00;69781.59;5161278;28;20269;-70
2022/10/04 09:05:26;;;;;;;10.30;9.38;;;;;;;-141.48;100.00;69781.59;5160878;28;20026;-70
2022/10/04 09:08:27;;;;;;;8.93;8.23;;;;;;;-141.48;100.00;69781.59;5161181;28;20037;-68
2022/10/04 09:11:15;;;;;;;9.55;8.63;;;;;;;-141.48;100.00;69781.59;5162471;28;20113;-70
2022/10/04 09:14:04;;;;;;;9.65;8.73;;;;;;;-141.48;100.00;69781.59;5161068;28;20026;-69
2022/10/04 09:16:46;;;;;;;19.63;9.55;;;;;;;-141.48;100.00;69781.59;5160938;28;20287;-70
2022/10/04 09:19:20;;;;;;;11.77;9.57;;;;;;;-141.48;100.00;69781.59;5160800;28;20118;-67
2022/10/04 09:22:12;;;;;;;10.85;9.88;;;;;;;-141.48;100.00;69781.59;5160556;28;20387;-70
2022/10/04 09:25:02;;;;;;;11.75;9.70;;;;;;;-141.48;100.00;69781.59;5160748;28;20037;-70
2022/10/04 09:28:06;;;;;;;14.13;8.45;;;;;;;-141.48;100.00;69781.59;5160136;28;20068;-69
2022/10/04 09:30:55;;;;;;;8.93;8.00;;;;;;;-141.48;100.00;69781.59;5160721;28;20058;-69
2022/10/04 09:33:46;;;;;;;8.93;8.23;;;;;;;-141.48;100.00;69781.59;5161943;28;20050;-69
2022/10/04 09:36:26;;;;;;;12.13;8.50;;;;;;;-141.48;100.00;69781.59;5160427;28;20027;-70
2022/10/04 09:39:09;;;;;;;;;;;;;;;-141.48;100.00;69781.59;5160627;28;20037;-69
2022/10/04 09:42:14;;;;;;;8.43;7.63;;;;;;;-141.48;100.00;69781.59;5160177;28;19913;-70
2022/10/04 09:45:04;;;;;;;9.02;8.13;;;;;;;-141.48;100.00;69781.59;5160216;28;20034;-70
2022/10/04 09:47:55;;;;;;;8.43;7.63;;;;;;;-141.48;100.00;69781.59;5160136;28;20034;-70
2022/10/04 09:50:41;;;;;;;8.40;7.40;;;;;;;-141.48;100.00;69781.59;5160267;28;20022;-70
2022/10/04 09:53:45;;;;;;;9.90;8.00;;;;;;;-141.48;100.00;69781.59;5160094;28;20037;-70
2022/10/04 09:56:21;;;;;;;9.73;7.32;;;;;;;-141.48;100.00;69781.59;5160048;28;20577;-69
2022/10/04 09:59:07;;;;;;;9.25;7.63;;;;;;;-141.48;100.00;69781.59;5160148;28;20030;-70
2022/10/04 10:02:27;;;;;;;11.35;6.35;;;;;;;-141.48;100.00;69781.59;5160792;28;20117;-69
2022/10/04 10:05:06;;;;;;;10.82;7.68;;;;;;;-141.48;100.00;69781.59;5103289;29;20030;-69
2022/10/04 10:07:55;;;;;;;6.13;5.72;;;;;;;-141.48;100.00;69781.59;5103423;29;20051;-70
2022/10/04 10:13:38;;;;;;;5.57;5.13;;;;;;;-141.48;100.00;69781.59;5162055;28;20088;-69
2022/10/04 10:16:48;;;;;;;11.27;6.20;;;;;;;-141.48;100.00;69781.59;5160455;28;20042;-68
2022/10/04 10:19:48;;;;;;;;;;;;;;;-141.48;100.00;69781.59;5160551;28;20026;-68
2022/10/04 10:23:01;;;;;;;11.85;7.28;;;;;;;-141.48;100.00;69781.59;5092435;28;19929;-68
2022/10/04 10:26:08;;;;;;;6.25;5.88;;;;;;;-141.48;100.00;69781.59;5160094;28;20023;-69
2022/10/04 10:28:41;;;;;;;7.30;5.47;;;;;;;-141.48;100.00;69781.59;5159892;28;20027;-67
2022/10/04 10:31:33;;;;;;;8.38;7.05;;;;;;;-141.48;100.00;69781.59;5161315;28;20125;-69
2022/10/04 10:34:28;;;;;;;9.45;5.47;;;;;;;-141.48;100.00;69781.59;5159682;28;20081;-68
2022/10/04 10:36:59;;;;;;;5.15;4.80;;;;;;;-141.48;100.00;69781.59;5161582;28;20027;-70
2022/10/04 10:39:36;;;;;;;6.50;5.90;;;;;;;-141.48;100.00;69781.59;5159938;28;20431;-69
2022/10/04 10:42:31;;;;;;;13.30;6.40;;;;;;;-141.48;100.00;69781.59;5159850;28;20034;-68
2022/10/04 10:45:31;;;;;;;6.43;5.47;;;;;;;-141.48;100.00;69781.59;5161269;28;20022;-68
2022/10/04 10:48:02;;;;;;;;;;;;;;;-141.48;100.00;69781.59;5161393;28;20350;-68
2022/10/04 10:51:02;;;;;;;8.52;5.38;;;;;;;-141.48;100.00;69781.59;5159380;28;20008;-69
2022/10/04 10:54:13;;;;;;;6.03;5.50;;;;;;;-141.48;100.00;69781.59;5163356;28;20388;-69
2022/10/04 10:57:16;;;;;;;5.38;4.97;;;;;;;-141.48;100.00;69781.59;5153711;28;20046;-69
2022/10/04 11:00:11;;;;;;;5.28;4.78;;;;;;;-141.48;100.00;69781.59;5164239;28;20383;-68
2022/10/04 11:02:41;;;;;;;13.85;5.82;;;;;;;-141.48;100.00;69781.59;5164683;28;20494;-69
2022/10/04 11:06:10;;;;;;;5.13;4.80;;;;;;;-141.48;100.00;69781.59;5163548;28;20080;-69
2022/10/04 11:09:03;;;;;;;6.82;5.60;;;;;;;-141.48;100.00;69781.59;5106800;29;20492;-68
2022/10/04 11:11:45;;;;;;;5.68;4.82;;;;;;;-141.48;100.00;69781.59;5122834;29;20379;-68
2022/10/04 11:14:52;;;;;;;4.82;4.43;;;;;;;-141.48;100.00;69781.59;5149443;28;20088;-69
2022/10/04 11:17:36;;;;;;;4.75;4.30;;;;;;;-141.48;100.00;69781.59;5163247;28;20034;-69
2022/10/04 11:20:39;;;;;;;4.40;4.00;;;;;;;-141.48;100.00;69781.59;5163232;28;20037;-69
2022/10/04 11:23:34;;;;;;;7.15;5.45;;;;;;;-141.48;100.00;69781.59;5163517;28;20072;-69
2022/10/04 11:26:35;;;;;;;6.95;5.10;;;;;;;-141.48;100.00;69781.59;5163018;28;20038;-69
2022/10/04 11:29:30;;;;;;;16.80;6.10;;;;;;;-141.48;100.00;69781.59;5163019;28;20367;-69
2022/10/04 11:32:01;;;;;;;5.13;4.72;;;;;;;-141.48;100.00;69781.59;5163229;28;20121;-68
2022/10/04 11:35:05;;;;;;;5.97;4.70;;;;;;;-141.48;100.00;69781.59;5164548;28;20026;-69
2022/10/04 11:37:48;;;;;;;4.45;3.97;;;;;;;-141.48;100.00;69781.59;5163287;28;20450;-69
2022/10/04 11:43:57;;;;;;;6.82;5.82;;;;;;;-141.48;100.00;69781.59;5290721;22;20549;-89
2022/10/04 11:46:38;;;;;;;4.25;3.75;;;;;;;-141.48;100.00;69781.59;5226888;28;20056;-88
2022/10/04 11:49:20;;;;;;;11.10;4.70;;;;;;;-141.48;100.00;69781.59;5227516;28;20025;-89
2022/10/04 11:52:07;;;;;;;12.02;5.97;;;;;;;-141.48;100.00;69781.59;5229260;28;20032;-88
2022/10/04 11:54:59;;;;;;;5.55;4.32;;;;;;;-141.48;100.00;69781.59;5231619;28;20033;-89
2022/10/04 11:57:32;;;;;;;8.35;5.68;;;;;;;-141.48;100.00;69781.59;5250195;28;20024;-90
2022/10/04 12:00:19;;;;;;;4.07;3.75;;;;;;;-141.48;100.00;69781.59;5229293;28;20139;-87
2022/10/04 12:03:08;;;;;;;8.40;5.35;;;;;;;-141.48;100.00;69781.59;5226929;28;20025;-89
2022/10/04 12:06:12;;;;;;;6.15;4.45;;;;;;;-141.48;100.00;69781.59;5227980;28;20021;-88
2022/10/04 12:08:50;;;;;;;30.08;4.80;;;;;;;-141.48;100.00;69781.59;5226883;28;20182;-88
2022/10/04 12:15:14;;;;;;;6.78;4.32;;;;;;;-141.48;100.00;69781.59;5228659;28;20120;-91
2022/10/04 12:18:20;;;;;;;4.10;3.72;;;;;;;-141.48;100.00;69781.59;5212051;28;20121;-88
2022/10/04 12:21:03;;;;;;;7.35;3.70;;;;;;;-141.48;100.00;69781.59;5226657;28;20391;-89
2022/10/04 12:24:05;;;;;;;11.20;4.38;;;;;;;-141.48;100.00;69781.59;5225685;28;20036;-88
2022/10/04 12:29:30;;;;;;;4.93;4.28;;;;;;;-141.48;100.00;69781.59;5217987;22;20057;-68
2022/10/04 12:32:27;;;;;;;5.47;3.25;;;;;;;-141.48;100.00;69781.59;5205796;28;20436;-68
2022/10/04 12:35:07;;;;;;;4.68;4.38;;;;;;;-141.48;100.00;69781.59;5204973;28;20166;-68